sensor_id;sensor_type;location;lat;lon;timestamp;P1;durP1;ratioP1;P2;durP2;ratioP2
21036;SDS011;10677;50.942;4.028;2023-10-09T00:01:05;12.60;;;6.80;;
21036;SDS011;10677;50.942;4.028;2023-10-09T00:03:43;12.13;;;7.00;;
21036;SDS011;10677;50.942;4.028;2023-10-09T00:06:21;11.93;;;7.03;;
21036;SDS011;10677;50.942;4.028;2023-10-09T00:09:02;12.30;;;6.22;;
21036;SDS011;10677;50.942;4.028;2023-10-09T00:11:48;12.25;;;7.25;;
21036;SDS011;10677;50.942;4.028;2023-10-09T00:14:14;17.33;;;7.47;;
21036;SDS011;10677;50.942;4.028;2023-10-09T00:16:43;13.88;;;6.43;;
21036;SDS011;10677;50.942;4.028;2023-10-09T00:19:13;16.52;;;6.75;;
21036;SDS011;10677;50.942;4.028;2023-10-09T00:21:47;12.20;;;6.68;;
21036;SDS011;10677;50.942;4.028;2023-10-09T00:24:13;12.55;;;6.95;;
21036;SDS011;10677;50.942;4.028;2023-10-09T00:26:49;12.73;;;7.13;;
21036;SDS011;10677;50.942;4.028;2023-10-09T00:29:16;12.25;;;6.72;;
21036;SDS011;10677;50.942;4.028;2023-10-09T00:31:48;12.10;;;6.45;;
21036;SDS011;10677;50.942;4.028;2023-10-09T00:34:19;11.02;;;6.00;;
21036;SDS011;10677;50.942;4.028;2023-10-09T00:36:47;14.77;;;6.82;;
21036;SDS011;10677;50.942;4.028;2023-10-09T00:39:19;13.45;;;6.97;;
21036;SDS011;10677;50.942;4.028;2023-10-09T00:42:06;13.65;;;5.97;;
21036;SDS011;10677;50.942;4.028;2023-10-09T00:44:33;12.27;;;6.05;;
21036;SDS011;10677;50.942;4.028;2023-10-09T00:47:14;10.98;;;6.03;;
21036;SDS011;10677;50.942;4.028;2023-10-09T00:49:49;13.32;;;6.18;;
21036;SDS011;10677;50.942;4.028;2023-10-09T00:52:19;11.93;;;6.43;;
21036;SDS011;10677;50.942;4.028;2023-10-09T00:54:56;8.82;;;5.63;;
21036;SDS011;10677;50.942;4.028;2023-10-09T00:57:27;10.98;;;6.43;;
21036;SDS011;10677;50.942;4.028;2023-10-09T00:59:54;9.00;;;5.53;;
21036;SDS011;10677;50.942;4.028;2023-10-09T01:02:26;10.32;;;5.35;;
21036;SDS011;10677;50.942;4.028;2023-10-09T01:05:11;10.80;;;5.68;;
21036;SDS011;10677;50.942;4.028;2023-10-09T01:07:44;13.00;;;5.82;;
21036;SDS011;10677;50.942;4.028;2023-10-09T01:10:12;12.68;;;5.97;;
21036;SDS011;10677;50.942;4.028;2023-10-09T01:12:41;11.15;;;5.47;;
21036;SDS011;10677;50.942;4.028;2023-10-09T01:15:10;13.25;;;5.88;;
21036;SDS011;10677;50.942;4.028;2023-10-09T01:17:58;11.40;;;5.68;;
21036;SDS011;10677;50.942;4.028;2023-10-09T01:20:24;11.63;;;6.00;;
21036;SDS011;10677;50.942;4.028;2023-10-09T01:22:55;11.45;;;5.63;;
21036;SDS011;10677;50.942;4.028;2023-10-09T01:25:21;12.52;;;6.45;;
21036;SDS011;10677;50.942;4.028;2023-10-09T01:27:47;10.55;;;6.50;;
21036;SDS011;10677;50.942;4.028;2023-10-09T01:30:12;12.82;;;5.80;;
21036;SDS011;10677;50.942;4.028;2023-10-09T01:32:39;14.10;;;6.68;;
21036;SDS011;10677;50.942;4.028;2023-10-09T01:35:05;10.68;;;5.60;;
21036;SDS011;10677;50.942;4.028;2023-10-09T01:37:45;12.73;;;5.72;;
21036;SDS011;10677;50.942;4.028;2023-10-09T01:40:14;16.38;;;6.00;;
21036;SDS011;10677;50.942;4.028;2023-10-09T01:43:00;13.05;;;5.93;;
21036;SDS011;10677;50.942;4.028;2023-10-09T01:45:28;11.88;;;5.40;;
21036;SDS011;10677;50.942;4.028;2023-10-09T01:47:57;11.38;;;5.65;;
21036;SDS011;10677;50.942;4.028;2023-10-09T01:50:29;13.02;;;6.18;;
21036;SDS011;10677;50.942;4.028;2023-10-09T01:53:00;9.40;;;5.55;;
21036;SDS011;10677;50.942;4.028;2023-10-09T01:55:27;10.68;;;5.32;;
21036;SDS011;10677;50.942;4.028;2023-10-09T01:57:54;13.48;;;6.30;;
21036;SDS011;10677;50.942;4.028;2023-10-09T02:00:23;12.70;;;6.32;;
21036;SDS011;10677;50.942;4.028;2023-10-09T02:02:53;11.57;;;6.32;;
21036;SDS011;10677;50.942;4.028;2023-10-09T02:05:19;14.77;;;6.22;;
21036;SDS011;10677;50.942;4.028;2023-10-09T02:07:44;12.10;;;6.57;;
21036;SDS011;10677;50.942;4.028;2023-10-09T02:10:16;12.88;;;6.30;;
21036;SDS011;10677;50.942;4.028;2023-10-09T02:13:07;16.17;;;6.90;;
21036;SDS011;10677;50.942;4.028;2023-10-09T02:15:38;11.55;;;7.05;;
21036;SDS011;10677;50.942;4.028;2023-10-09T02:18:08;11.55;;;6.47;;
21036;SDS011;10677;50.942;4.028;2023-10-09T02:23:37;12.20;;;6.85;;
21036;SDS011;10677;50.942;4.028;2023-10-09T02:26:05;11.93;;;6.72;;
21036;SDS011;10677;50.942;4.028;2023-10-09T02:28:35;13.38;;;6.50;;
21036;SDS011;10677;50.942;4.028;2023-10-09T02:31:02;14.82;;;7.72;;
21036;SDS011;10677;50.942;4.028;2023-10-09T02:33:35;19.75;;;7.90;;
21036;SDS011;10677;50.942;4.028;2023-10-09T02:36:01;11.18;;;6.97;;
21036;SDS011;10677;50.942;4.028;2023-10-09T02:38:34;13.18;;;7.00;;
21036;SDS011;10677;50.942;4.028;2023-10-09T02:41:02;12.82;;;6.88;;
21036;SDS011;10677;50.942;4.028;2023-10-09T02:43:29;11.40;;;6.63;;
21036;SDS011;10677;50.942;4.028;2023-10-09T02:46:15;19.88;;;7.18;;
21036;SDS011;10677;50.942;4.028;2023-10-09T02:51:21;13.63;;;7.50;;
21036;SDS011;10677;50.942;4.028;2023-10-09T02:53:58;14.45;;;7.50;;
21036;SDS011;10677;50.942;4.028;2023-10-09T02:56:32;14.73;;;7.82;;
21036;SDS011;10677;50.942;4.028;2023-10-09T02:59:23;14.27;;;7.85;;
21036;SDS011;10677;50.942;4.028;2023-10-09T03:01:49;13.13;;;7.53;;
21036;SDS011;10677;50.942;4.028;2023-10-09T03:04:18;13.55;;;8.13;;
21036;SDS011;10677;50.942;4.028;2023-10-09T03:06:44;13.35;;;8.10;;
21036;SDS011;10677;50.942;4.028;2023-10-09T03:09:19;14.98;;;7.55;;
21036;SDS011;10677;50.942;4.028;2023-10-09T03:11:52;13.70;;;8.50;;
21036;SDS011;10677;50.942;4.028;2023-10-09T03:14:20;17.25;;;8.63;;
21036;SDS011;10677;50.942;4.028;2023-10-09T03:16:48;14.40;;;8.05;;
21036;SDS011;10677;50.942;4.028;2023-10-09T03:19:14;14.73;;;8.32;;
21036;SDS011;10677;50.942;4.028;2023-10-09T03:21:39;13.85;;;7.78;;
21036;SDS011;10677;50.942;4.028;2023-10-09T03:24:06;14.48;;;7.85;;
21036;SDS011;10677;50.942;4.028;2023-10-09T03:26:33;15.40;;;8.18;;
21036;SDS011;10677;50.942;4.028;2023-10-09T03:28:59;14.50;;;8.05;;
21036;SDS011;10677;50.942;4.028;2023-10-09T03:31:35;16.25;;;9.43;;
21036;SDS011;10677;50.942;4.028;2023-10-09T03:34:07;13.68;;;8.77;;
21036;SDS011;10677;50.942;4.028;2023-10-09T03:36:35;15.18;;;8.30;;
21036;SDS011;10677;50.942;4.028;2023-10-09T03:39:05;17.77;;;9.10;;
21036;SDS011;10677;50.942;4.028;2023-10-09T03:41:49;16.02;;;9.20;;
21036;SDS011;10677;50.942;4.028;2023-10-09T03:44:16;15.32;;;9.23;;
21036;SDS011;10677;50.942;4.028;2023-10-09T03:46:45;17.10;;;9.35;;
21036;SDS011;10677;50.942;4.028;2023-10-09T03:49:11;19.00;;;9.95;;
21036;SDS011;10677;50.942;4.028;2023-10-09T03:51:38;18.83;;;9.48;;
21036;SDS011;10677;50.942;4.028;2023-10-09T03:54:04;16.27;;;8.60;;
21036;SDS011;10677;50.942;4.028;2023-10-09T03:56:33;15.48;;;9.65;;
21036;SDS011;10677;50.942;4.028;2023-10-09T03:58:59;19.95;;;10.32;;
21036;SDS011;10677;50.942;4.028;2023-10-09T04:01:26;21.60;;;10.77;;
21036;SDS011;10677;50.942;4.028;2023-10-09T04:04:02;21.30;;;10.85;;
21036;SDS011;10677;50.942;4.028;2023-10-09T04:06:30;20.70;;;10.63;;
21036;SDS011;10677;50.942;4.028;2023-10-09T04:09:06;18.83;;;10.77;;
21036;SDS011;10677;50.942;4.028;2023-10-09T04:11:44;21.05;;;12.18;;
21036;SDS011;10677;50.942;4.028;2023-10-09T04:14:11;24.88;;;12.35;;
21036;SDS011;10677;50.942;4.028;2023-10-09T04:16:51;17.73;;;12.07;;
21036;SDS011;10677;50.942;4.028;2023-10-09T04:19:17;20.77;;;12.13;;
21036;SDS011;10677;50.942;4.028;2023-10-09T04:21:47;20.98;;;12.32;;
21036;SDS011;10677;50.942;4.028;2023-10-09T04:24:13;21.73;;;12.13;;
21036;SDS011;10677;50.942;4.028;2023-10-09T04:26:42;20.33;;;12.35;;
21036;SDS011;10677;50.942;4.028;2023-10-09T04:29:15;17.70;;;12.00;;
21036;SDS011;10677;50.942;4.028;2023-10-09T04:31:56;19.95;;;12.70;;
21036;SDS011;10677;50.942;4.028;2023-10-09T04:34:25;24.13;;;13.70;;
21036;SDS011;10677;50.942;4.028;2023-10-09T04:37:00;25.20;;;13.63;;
21036;SDS011;10677;50.942;4.028;2023-10-09T04:39:28;25.55;;;13.63;;
21036;SDS011;10677;50.942;4.028;2023-10-09T04:41:54;21.40;;;13.40;;
21036;SDS011;10677;50.942;4.028;2023-10-09T04:44:40;21.48;;;12.73;;
21036;SDS011;10677;50.942;4.028;2023-10-09T04:47:24;21.52;;;13.30;;
21036;SDS011;10677;50.942;4.028;2023-10-09T04:50:07;27.98;;;14.25;;
21036;SDS011;10677;50.942;4.028;2023-10-09T04:52:36;24.25;;;14.10;;
21036;SDS011;10677;50.942;4.028;2023-10-09T04:55:05;21.63;;;12.55;;
21036;SDS011;10677;50.942;4.028;2023-10-09T04:57:42;21.95;;;14.68;;
21036;SDS011;10677;50.942;4.028;2023-10-09T05:02:54;18.55;;;11.95;;
21036;SDS011;10677;50.942;4.028;2023-10-09T05:05:25;20.15;;;12.02;;
21036;SDS011;10677;50.942;4.028;2023-10-09T05:08:07;25.02;;;13.95;;
21036;SDS011;10677;50.942;4.028;2023-10-09T05:10:59;21.92;;;13.00;;
21036;SDS011;10677;50.942;4.028;2023-10-09T05:13:40;26.08;;;13.77;;
21036;SDS011;10677;50.942;4.028;2023-10-09T05:16:07;32.47;;;14.52;;
21036;SDS011;10677;50.942;4.028;2023-10-09T05:18:43;18.75;;;11.43;;
21036;SDS011;10677;50.942;4.028;2023-10-09T05:21:22;18.88;;;11.45;;
21036;SDS011;10677;50.942;4.028;2023-10-09T05:23:58;26.67;;;15.05;;
21036;SDS011;10677;50.942;4.028;2023-10-09T05:26:37;25.85;;;13.52;;
21036;SDS011;10677;50.942;4.028;2023-10-09T05:29:13;23.45;;;13.43;;
21036;SDS011;10677;50.942;4.028;2023-10-09T05:31:49;19.95;;;12.50;;
21036;SDS011;10677;50.942;4.028;2023-10-09T05:34:23;23.63;;;13.57;;
21036;SDS011;10677;50.942;4.028;2023-10-09T05:36:58;22.80;;;14.02;;
21036;SDS011;10677;50.942;4.028;2023-10-09T05:39:47;25.27;;;13.57;;
21036;SDS011;10677;50.942;4.028;2023-10-09T05:42:44;23.02;;;13.48;;
21036;SDS011;10677;50.942;4.028;2023-10-09T05:45:11;22.15;;;12.93;;
21036;SDS011;10677;50.942;4.028;2023-10-09T05:47:57;20.48;;;12.00;;
21036;SDS011;10677;50.942;4.028;2023-10-09T05:50:29;21.50;;;12.32;;
21036;SDS011;10677;50.942;4.028;2023-10-09T05:53:24;23.30;;;13.02;;
21036;SDS011;10677;50.942;4.028;2023-10-09T05:56:08;21.27;;;13.23;;
21036;SDS011;10677;50.942;4.028;2023-10-09T05:58:53;23.25;;;12.60;;
21036;SDS011;10677;50.942;4.028;2023-10-09T06:01:36;21.13;;;13.23;;
21036;SDS011;10677;50.942;4.028;2023-10-09T06:04:21;24.27;;;13.40;;
21036;SDS011;10677;50.942;4.028;2023-10-09T06:06:58;24.58;;;13.50;;
21036;SDS011;10677;50.942;4.028;2023-10-09T06:09:37;54.42;;;34.58;;
21036;SDS011;10677;50.942;4.028;2023-10-09T06:12:17;29.00;;;12.20;;
21036;SDS011;10677;50.942;4.028;2023-10-09T06:15:14;28.20;;;13.25;;
21036;SDS011;10677;50.942;4.028;2023-10-09T06:18:15;23.00;;;12.80;;
21036;SDS011;10677;50.942;4.028;2023-10-09T06:20:59;24.80;;;14.27;;
21036;SDS011;10677;50.942;4.028;2023-10-09T06:23:55;19.52;;;11.68;;
21036;SDS011;10677;50.942;4.028;2023-10-09T06:26:39;23.70;;;13.20;;
21036;SDS011;10677;50.942;4.028;2023-10-09T06:29:16;25.58;;;14.40;;
21036;SDS011;10677;50.942;4.028;2023-10-09T06:32:05;20.42;;;12.82;;
21036;SDS011;10677;50.942;4.028;2023-10-09T06:35:00;24.38;;;13.63;;
21036;SDS011;10677;50.942;4.028;2023-10-09T06:37:47;23.30;;;14.07;;
21036;SDS011;10677;50.942;4.028;2023-10-09T06:40:26;23.63;;;14.48;;
21036;SDS011;10677;50.942;4.028;2023-10-09T06:43:04;28.02;;;14.35;;
21036;SDS011;10677;50.942;4.028;2023-10-09T06:45:45;26.65;;;13.70;;
21036;SDS011;10677;50.942;4.028;2023-10-09T06:48:11;21.48;;;13.05;;
21036;SDS011;10677;50.942;4.028;2023-10-09T06:51:02;21.65;;;13.93;;
21036;SDS011;10677;50.942;4.028;2023-10-09T06:53:59;25.30;;;13.65;;
21036;SDS011;10677;50.942;4.028;2023-10-09T06:56:30;27.40;;;14.02;;
21036;SDS011;10677;50.942;4.028;2023-10-09T06:58:56;23.35;;;13.27;;
21036;SDS011;10677;50.942;4.028;2023-10-09T07:01:23;37.13;;;15.13;;
21036;SDS011;10677;50.942;4.028;2023-10-09T07:04:11;26.85;;;14.38;;
21036;SDS011;10677;50.942;4.028;2023-10-09T07:06:44;24.15;;;14.38;;
21036;SDS011;10677;50.942;4.028;2023-10-09T07:09:11;21.92;;;14.25;;
21036;SDS011;10677;50.942;4.028;2023-10-09T07:11:38;21.40;;;13.43;;
21036;SDS011;10677;50.942;4.028;2023-10-09T07:14:11;24.20;;;14.05;;
21036;SDS011;10677;50.942;4.028;2023-10-09T07:19:23;37.50;;;14.07;;
21036;SDS011;10677;50.942;4.028;2023-10-09T07:22:03;22.63;;;13.90;;
21036;SDS011;10677;50.942;4.028;2023-10-09T07:24:32;20.10;;;14.52;;
21036;SDS011;10677;50.942;4.028;2023-10-09T07:27:19;21.02;;;12.13;;
21036;SDS011;10677;50.942;4.028;2023-10-09T07:30:05;24.45;;;13.82;;
21036;SDS011;10677;50.942;4.028;2023-10-09T07:32:58;25.08;;;13.93;;
21036;SDS011;10677;50.942;4.028;2023-10-09T07:35:40;26.90;;;14.18;;
21036;SDS011;10677;50.942;4.028;2023-10-09T07:38:20;20.63;;;12.73;;
21036;SDS011;10677;50.942;4.028;2023-10-09T07:41:00;27.27;;;13.50;;
21036;SDS011;10677;50.942;4.028;2023-10-09T07:43:28;21.52;;;13.82;;
21036;SDS011;10677;50.942;4.028;2023-10-09T07:46:04;18.65;;;12.65;;
21036;SDS011;10677;50.942;4.028;2023-10-09T07:48:52;46.65;;;15.25;;
21036;SDS011;10677;50.942;4.028;2023-10-09T07:51:19;24.70;;;12.65;;
21036;SDS011;10677;50.942;4.028;2023-10-09T07:53:49;23.58;;;13.85;;
21036;SDS011;10677;50.942;4.028;2023-10-09T07:56:22;27.20;;;13.43;;
21036;SDS011;10677;50.942;4.028;2023-10-09T07:58:48;21.23;;;13.45;;
21036;SDS011;10677;50.942;4.028;2023-10-09T08:01:14;19.88;;;13.65;;
21036;SDS011;10677;50.942;4.028;2023-10-09T08:03:47;22.25;;;12.50;;
21036;SDS011;10677;50.942;4.028;2023-10-09T08:06:22;22.80;;;13.73;;
21036;SDS011;10677;50.942;4.028;2023-10-09T08:09:04;22.25;;;13.85;;
21036;SDS011;10677;50.942;4.028;2023-10-09T08:11:40;24.60;;;14.43;;
21036;SDS011;10677;50.942;4.028;2023-10-09T08:14:10;22.13;;;13.10;;
21036;SDS011;10677;50.942;4.028;2023-10-09T08:16:54;21.33;;;12.95;;
21036;SDS011;10677;50.942;4.028;2023-10-09T08:19:39;24.00;;;13.43;;
21036;SDS011;10677;50.942;4.028;2023-10-09T08:22:37;24.42;;;13.13;;
21036;SDS011;10677;50.942;4.028;2023-10-09T08:25:08;20.27;;;13.35;;
21036;SDS011;10677;50.942;4.028;2023-10-09T08:27:58;25.77;;;14.55;;
21036;SDS011;10677;50.942;4.028;2023-10-09T08:30:54;21.02;;;13.15;;
21036;SDS011;10677;50.942;4.028;2023-10-09T08:33:20;21.83;;;13.80;;
21036;SDS011;10677;50.942;4.028;2023-10-09T08:35:55;22.23;;;13.20;;
21036;SDS011;10677;50.942;4.028;2023-10-09T08:38:27;22.25;;;12.13;;
21036;SDS011;10677;50.942;4.028;2023-10-09T08:40:58;22.73;;;13.18;;
21036;SDS011;10677;50.942;4.028;2023-10-09T08:43:52;22.95;;;13.60;;
21036;SDS011;10677;50.942;4.028;2023-10-09T08:46:25;23.88;;;14.23;;
21036;SDS011;10677;50.942;4.028;2023-10-09T08:48:55;20.02;;;12.88;;
21036;SDS011;10677;50.942;4.028;2023-10-09T08:51:25;20.90;;;13.45;;
21036;SDS011;10677;50.942;4.028;2023-10-09T08:53:52;21.05;;;12.68;;
21036;SDS011;10677;50.942;4.028;2023-10-09T08:56:39;18.85;;;12.27;;
21036;SDS011;10677;50.942;4.028;2023-10-09T08:59:14;21.45;;;13.07;;
21036;SDS011;10677;50.942;4.028;2023-10-09T09:01:43;24.50;;;12.48;;
21036;SDS011;10677;50.942;4.028;2023-10-09T09:04:10;25.08;;;14.07;;
21036;SDS011;10677;50.942;4.028;2023-10-09T09:06:36;22.98;;;13.38;;
21036;SDS011;10677;50.942;4.028;2023-10-09T09:09:22;22.80;;;12.80;;
21036;SDS011;10677;50.942;4.028;2023-10-09T09:11:49;20.77;;;13.63;;
21036;SDS011;10677;50.942;4.028;2023-10-09T09:14:15;19.55;;;12.68;;
21036;SDS011;10677;50.942;4.028;2023-10-09T09:16:47;23.83;;;14.15;;
21036;SDS011;10677;50.942;4.028;2023-10-09T09:19:17;21.90;;;13.63;;
21036;SDS011;10677;50.942;4.028;2023-10-09T09:21:52;23.75;;;13.18;;
21036;SDS011;10677;50.942;4.028;2023-10-09T09:24:24;21.80;;;12.63;;
21036;SDS011;10677;50.942;4.028;2023-10-09T09:26:51;21.58;;;13.43;;
21036;SDS011;10677;50.942;4.028;2023-10-09T09:29:24;21.35;;;13.07;;
21036;SDS011;10677;50.942;4.028;2023-10-09T09:32:07;20.88;;;12.02;;
21036;SDS011;10677;50.942;4.028;2023-10-09T09:34:47;24.30;;;12.20;;
21036;SDS011;10677;50.942;4.028;2023-10-09T09:37:26;21.40;;;12.93;;
21036;SDS011;10677;50.942;4.028;2023-10-09T09:40:03;36.47;;;13.85;;
21036;SDS011;10677;50.942;4.028;2023-10-09T09:43:02;18.92;;;11.75;;
21036;SDS011;10677;50.942;4.028;2023-10-09T09:45:35;21.08;;;12.20;;
21036;SDS011;10677;50.942;4.028;2023-10-09T09:48:04;21.20;;;11.77;;
21036;SDS011;10677;50.942;4.028;2023-10-09T09:50:33;21.83;;;12.07;;
21036;SDS011;10677;50.942;4.028;2023-10-09T09:53:04;19.42;;;12.60;;
21036;SDS011;10677;50.942;4.028;2023-10-09T09:55:33;24.35;;;12.32;;
21036;SDS011;10677;50.942;4.028;2023-10-09T09:58:07;25.30;;;12.20;;
21036;SDS011;10677;50.942;4.028;2023-10-09T10:00:44;25.08;;;13.35;;
21036;SDS011;10677;50.942;4.028;2023-10-09T10:03:22;19.75;;;12.52;;
21036;SDS011;10677;50.942;4.028;2023-10-09T10:05:53;19.70;;;11.85;;
21036;SDS011;10677;50.942;4.028;2023-10-09T10:08:22;18.77;;;11.90;;
21036;SDS011;10677;50.942;4.028;2023-10-09T10:10:57;18.25;;;11.30;;
21036;SDS011;10677;50.942;4.028;2023-10-09T10:21:32;21.85;;;12.50;;
21036;SDS011;10677;50.942;4.028;2023-10-09T10:29:36;19.00;;;12.05;;
21036;SDS011;10677;50.942;4.028;2023-10-09T10:32:03;27.85;;;12.82;;
21036;SDS011;10677;50.942;4.028;2023-10-09T10:37:20;24.48;;;12.82;;
21036;SDS011;10677;50.942;4.028;2023-10-09T10:39:50;20.98;;;11.52;;
21036;SDS011;10677;50.942;4.028;2023-10-09T10:42:24;18.67;;;11.48;;
21036;SDS011;10677;50.942;4.028;2023-10-09T10:45:02;19.05;;;10.45;;
21036;SDS011;10677;50.942;4.028;2023-10-09T10:47:48;38.55;;;13.80;;
21036;SDS011;10677;50.942;4.028;2023-10-09T10:50:17;19.50;;;11.90;;
21036;SDS011;10677;50.942;4.028;2023-10-09T10:53:13;20.88;;;11.27;;
21036;SDS011;10677;50.942;4.028;2023-10-09T10:55:54;19.88;;;10.80;;
21036;SDS011;10677;50.942;4.028;2023-10-09T10:58:53;27.50;;;11.90;;
21036;SDS011;10677;50.942;4.028;2023-10-09T11:01:29;18.10;;;10.90;;
21036;SDS011;10677;50.942;4.028;2023-10-09T11:04:16;17.90;;;10.57;;
21036;SDS011;10677;50.942;4.028;2023-10-09T11:07:00;20.50;;;11.70;;
21036;SDS011;10677;50.942;4.028;2023-10-09T11:09:50;19.23;;;11.05;;
21036;SDS011;10677;50.942;4.028;2023-10-09T11:15:59;25.27;;;11.77;;
21036;SDS011;10677;50.942;4.028;2023-10-09T11:18:53;17.52;;;9.95;;
21036;SDS011;10677;50.942;4.028;2023-10-09T11:21:22;20.08;;;11.93;;
21036;SDS011;10677;50.942;4.028;2023-10-09T11:23:55;22.80;;;11.70;;
21036;SDS011;10677;50.942;4.028;2023-10-09T11:26:46;21.55;;;11.35;;
21036;SDS011;10677;50.942;4.028;2023-10-09T11:29:20;18.38;;;11.30;;
21036;SDS011;10677;50.942;4.028;2023-10-09T11:32:00;24.33;;;12.50;;
21036;SDS011;10677;50.942;4.028;2023-10-09T11:34:30;20.10;;;11.45;;
21036;SDS011;10677;50.942;4.028;2023-10-09T11:37:19;16.65;;;11.48;;
21036;SDS011;10677;50.942;4.028;2023-10-09T11:39:59;19.05;;;11.07;;
21036;SDS011;10677;50.942;4.028;2023-10-09T11:42:29;17.45;;;11.27;;
21036;SDS011;10677;50.942;4.028;2023-10-09T11:45:19;20.13;;;10.90;;
21036;SDS011;10677;50.942;4.028;2023-10-09T11:47:53;20.17;;;11.10;;
21036;SDS011;10677;50.942;4.028;2023-10-09T11:53:08;19.40;;;11.85;;
21036;SDS011;10677;50.942;4.028;2023-10-09T11:55:50;21.88;;;13.10;;
21036;SDS011;10677;50.942;4.028;2023-10-09T11:58:18;18.70;;;12.25;;
21036;SDS011;10677;50.942;4.028;2023-10-09T12:00:54;23.83;;;12.70;;
21036;SDS011;10677;50.942;4.028;2023-10-09T12:03:30;18.73;;;11.90;;
21036;SDS011;10677;50.942;4.028;2023-10-09T12:05:57;21.60;;;12.38;;
21036;SDS011;10677;50.942;4.028;2023-10-09T12:08:34;16.50;;;11.05;;
21036;SDS011;10677;50.942;4.028;2023-10-09T12:11:01;18.42;;;10.90;;
21036;SDS011;10677;50.942;4.028;2023-10-09T12:13:29;22.35;;;12.68;;
21036;SDS011;10677;50.942;4.028;2023-10-09T12:15:55;18.50;;;11.90;;
21036;SDS011;10677;50.942;4.028;2023-10-09T12:18:22;23.88;;;12.75;;
21036;SDS011;10677;50.942;4.028;2023-10-09T12:20:49;20.48;;;13.00;;
21036;SDS011;10677;50.942;4.028;2023-10-09T12:23:27;20.30;;;12.63;;
21036;SDS011;10677;50.942;4.028;2023-10-09T12:25:53;19.45;;;12.23;;
21036;SDS011;10677;50.942;4.028;2023-10-09T12:28:21;21.83;;;11.90;;
21036;SDS011;10677;50.942;4.028;2023-10-09T12:30:48;17.17;;;10.90;;
21036;SDS011;10677;50.942;4.028;2023-10-09T12:33:17;23.27;;;12.18;;
21036;SDS011;10677;50.942;4.028;2023-10-09T12:35:44;17.10;;;12.35;;
21036;SDS011;10677;50.942;4.028;2023-10-09T12:38:12;20.10;;;12.68;;
21036;SDS011;10677;50.942;4.028;2023-10-09T12:40:43;21.15;;;11.95;;
21036;SDS011;10677;50.942;4.028;2023-10-09T12:43:16;21.00;;;12.45;;
21036;SDS011;10677;50.942;4.028;2023-10-09T12:45:44;21.50;;;12.07;;
21036;SDS011;10677;50.942;4.028;2023-10-09T12:48:10;21.88;;;12.05;;
21036;SDS011;10677;50.942;4.028;2023-10-09T12:50:37;19.20;;;12.30;;
21036;SDS011;10677;50.942;4.028;2023-10-09T12:53:07;21.85;;;11.43;;
21036;SDS011;10677;50.942;4.028;2023-10-09T12:55:37;18.45;;;11.15;;
21036;SDS011;10677;50.942;4.028;2023-10-09T12:58:10;18.00;;;11.45;;
21036;SDS011;10677;50.942;4.028;2023-10-09T13:00:41;21.10;;;12.98;;
21036;SDS011;10677;50.942;4.028;2023-10-09T13:03:14;19.88;;;13.15;;
21036;SDS011;10677;50.942;4.028;2023-10-09T13:05:47;17.35;;;11.90;;
21036;SDS011;10677;50.942;4.028;2023-10-09T13:08:21;17.45;;;11.50;;
21036;SDS011;10677;50.942;4.028;2023-10-09T13:11:06;18.25;;;13.30;;
21036;SDS011;10677;50.942;4.028;2023-10-09T13:13:40;20.85;;;12.80;;
21036;SDS011;10677;50.942;4.028;2023-10-09T13:16:07;22.08;;;13.10;;
21036;SDS011;10677;50.942;4.028;2023-10-09T13:18:41;20.95;;;12.45;;
21036;SDS011;10677;50.942;4.028;2023-10-09T13:21:15;18.75;;;12.27;;
21036;SDS011;10677;50.942;4.028;2023-10-09T13:23:44;21.33;;;12.68;;
21036;SDS011;10677;50.942;4.028;2023-10-09T13:26:13;20.67;;;13.52;;
21036;SDS011;10677;50.942;4.028;2023-10-09T13:28:49;19.85;;;12.60;;
21036;SDS011;10677;50.942;4.028;2023-10-09T13:31:18;20.33;;;12.90;;
21036;SDS011;10677;50.942;4.028;2023-10-09T13:33:46;24.02;;;12.77;;
21036;SDS011;10677;50.942;4.028;2023-10-09T13:36:13;20.40;;;13.25;;
21036;SDS011;10677;50.942;4.028;2023-10-09T13:39:02;21.58;;;12.80;;
21036;SDS011;10677;50.942;4.028;2023-10-09T13:41:52;17.45;;;12.23;;
21036;SDS011;10677;50.942;4.028;2023-10-09T13:44:23;20.77;;;12.63;;
21036;SDS011;10677;50.942;4.028;2023-10-09T13:46:51;21.30;;;12.95;;
21036;SDS011;10677;50.942;4.028;2023-10-09T13:49:24;19.95;;;12.73;;
21036;SDS011;10677;50.942;4.028;2023-10-09T13:51:57;20.20;;;12.20;;
21036;SDS011;10677;50.942;4.028;2023-10-09T13:54:23;24.55;;;12.73;;
21036;SDS011;10677;50.942;4.028;2023-10-09T13:56:59;22.80;;;12.32;;
21036;SDS011;10677;50.942;4.028;2023-10-09T13:59:25;28.33;;;13.55;;
21036;SDS011;10677;50.942;4.028;2023-10-09T14:01:51;20.75;;;13.35;;
21036;SDS011;10677;50.942;4.028;2023-10-09T14:04:20;25.75;;;12.00;;
21036;SDS011;10677;50.942;4.028;2023-10-09T14:06:48;19.92;;;12.43;;
21036;SDS011;10677;50.942;4.028;2023-10-09T14:09:14;24.80;;;14.27;;
21036;SDS011;10677;50.942;4.028;2023-10-09T14:12:03;23.88;;;13.73;;
21036;SDS011;10677;50.942;4.028;2023-10-09T14:17:06;21.10;;;12.48;;
21036;SDS011;10677;50.942;4.028;2023-10-09T14:19:42;23.73;;;13.38;;
21036;SDS011;10677;50.942;4.028;2023-10-09T14:22:25;20.83;;;12.93;;
21036;SDS011;10677;50.942;4.028;2023-10-09T14:24:53;34.65;;;13.75;;
21036;SDS011;10677;50.942;4.028;2023-10-09T14:27:24;46.15;;;15.73;;
21036;SDS011;10677;50.942;4.028;2023-10-09T14:29:52;39.90;;;16.02;;
21036;SDS011;10677;50.942;4.028;2023-10-09T14:32:24;27.27;;;14.00;;
21036;SDS011;10677;50.942;4.028;2023-10-09T14:35:09;22.83;;;12.82;;
21036;SDS011;10677;50.942;4.028;2023-10-09T14:37:41;21.38;;;12.63;;
21036;SDS011;10677;50.942;4.028;2023-10-09T14:40:07;22.63;;;13.45;;
21036;SDS011;10677;50.942;4.028;2023-10-09T14:42:41;22.45;;;12.55;;
21036;SDS011;10677;50.942;4.028;2023-10-09T14:45:10;24.08;;;14.88;;
21036;SDS011;10677;50.942;4.028;2023-10-09T14:47:43;26.70;;;14.38;;
21036;SDS011;10677;50.942;4.028;2023-10-09T14:50:11;20.85;;;13.95;;
21036;SDS011;10677;50.942;4.028;2023-10-09T14:52:38;22.08;;;12.32;;
21036;SDS011;10677;50.942;4.028;2023-10-09T14:55:05;26.73;;;14.52;;
21036;SDS011;10677;50.942;4.028;2023-10-09T14:57:32;25.75;;;13.00;;
21036;SDS011;10677;50.942;4.028;2023-10-09T14:59:59;19.80;;;11.77;;
21036;SDS011;10677;50.942;4.028;2023-10-09T15:02:25;19.90;;;12.88;;
21036;SDS011;10677;50.942;4.028;2023-10-09T15:04:50;19.75;;;13.15;;
21036;SDS011;10677;50.942;4.028;2023-10-09T15:07:18;22.88;;;14.43;;
21036;SDS011;10677;50.942;4.028;2023-10-09T15:09:44;22.05;;;13.80;;
21036;SDS011;10677;50.942;4.028;2023-10-09T15:12:09;51.38;;;17.90;;
21036;SDS011;10677;50.942;4.028;2023-10-09T15:14:36;40.00;;;15.40;;
21036;SDS011;10677;50.942;4.028;2023-10-09T15:17:04;30.38;;;14.85;;
21036;SDS011;10677;50.942;4.028;2023-10-09T15:19:31;22.52;;;13.25;;
21036;SDS011;10677;50.942;4.028;2023-10-09T15:21:57;29.15;;;13.82;;
21036;SDS011;10677;50.942;4.028;2023-10-09T15:24:24;26.88;;;14.40;;
21036;SDS011;10677;50.942;4.028;2023-10-09T15:26:52;24.73;;;14.00;;
21036;SDS011;10677;50.942;4.028;2023-10-09T15:29:22;20.52;;;13.32;;
21036;SDS011;10677;50.942;4.028;2023-10-09T15:31:54;23.90;;;14.60;;
21036;SDS011;10677;50.942;4.028;2023-10-09T15:34:35;22.48;;;13.93;;
21036;SDS011;10677;50.942;4.028;2023-10-09T15:37:01;23.48;;;13.00;;
21036;SDS011;10677;50.942;4.028;2023-10-09T15:39:29;22.52;;;12.85;;
21036;SDS011;10677;50.942;4.028;2023-10-09T15:41:55;22.35;;;12.88;;